AFR78RT LFPG-LFLL
Flight info
| Callsign | AFR78RT |
|---|---|
| Flight time | N/A |
| Altitude | 27000 |
| Route | OKASI DCT OKEKO DCT OKEPI DCT MOU |
| Aircraft | A321/M-SDE2E3FGIJ1RWY/HB1 |
Departure
| Time | 2026-05-01 15:28 |
|---|---|
| Airport | Charles de Gaulle International Airport (LFPG) |
Arrival
| Time | N/A |
|---|---|
| Airport | Lyon Saint-Exupéry Airport (LFLL) |
| Time | Latitude | Longitude | Altitude | Speed | Heading |
|---|---|---|---|---|---|
| 2026-05-01 14:53 | 49.00718 | 2.57399 | 360 ft | 0 kts | 184° |
| 2026-05-01 15:17 | 49.00751 | 2.57408 | 366 ft | 4 kts | 218° |
| 2026-05-01 15:18 | 49.00764 | 2.57462 | 360 ft | 0 kts | 265° |
| 2026-05-01 15:20 | 49.00763 | 2.57447 | 366 ft | 5 kts | 265° |
| 2026-05-01 15:20 | 49.00758 | 2.57371 | 362 ft | 9 kts | 264° |
| 2026-05-01 15:21 | 49.00758 | 2.57258 | 360 ft | 13 kts | 299° |
| 2026-05-01 15:21 | 49.00845 | 2.57178 | 360 ft | 17 kts | 292° |
| 2026-05-01 15:21 | 49.00843 | 2.57023 | 360 ft | 13 kts | 266° |
| 2026-05-01 15:21 | 49.00836 | 2.56867 | 362 ft | 17 kts | 265° |
| 2026-05-01 15:22 | 49.00807 | 2.56437 | 363 ft | 18 kts | 263° |
| 2026-05-01 15:22 | 49.00790 | 2.56229 | 365 ft | 21 kts | 262° |
| 2026-05-01 15:22 | 49.00768 | 2.55986 | 360 ft | 25 kts | 262° |
| 2026-05-01 15:23 | 49.00750 | 2.55765 | 366 ft | 12 kts | 263° |
| 2026-05-01 15:23 | 49.00740 | 2.55627 | 362 ft | 16 kts | 264° |
| 2026-05-01 15:23 | 49.00727 | 2.55438 | 360 ft | 20 kts | 264° |
| 2026-05-01 15:23 | 49.00684 | 2.55267 | 362 ft | 20 kts | 217° |
| 2026-05-01 15:24 | 49.00540 | 2.55291 | 366 ft | 24 kts | 163° |
| 2026-05-01 15:24 | 49.00367 | 2.55364 | 360 ft | 28 kts | 164° |
| 2026-05-01 15:24 | 49.00183 | 2.55443 | 360 ft | 28 kts | 164° |
| 2026-05-01 15:24 | 49.00087 | 2.55485 | 360 ft | 14 kts | 163° |
| 2026-05-01 15:25 | 48.99980 | 2.55532 | 362 ft | 18 kts | 164° |
| 2026-05-01 15:25 | 48.99863 | 2.55635 | 363 ft | 22 kts | 124° |
| 2026-05-01 15:25 | 48.99819 | 2.55782 | 362 ft | 13 kts | 137° |
| 2026-05-01 15:25 | 48.99739 | 2.55808 | 362 ft | 1 kts | 174° |
| 2026-05-01 15:26 | 48.99738 | 2.55808 | 362 ft | 0 kts | 174° |
| 2026-05-01 15:26 | 48.99737 | 2.55808 | 362 ft | 1 kts | 174° |
| 2026-05-01 15:26 | 48.99715 | 2.55811 | 360 ft | 6 kts | 174° |
| 2026-05-01 15:26 | 48.99656 | 2.55820 | 360 ft | 11 kts | 175° |
| 2026-05-01 15:27 | 48.99617 | 2.55826 | 359 ft | 4 kts | 160° |
| 2026-05-01 15:27 | 48.99602 | 2.55881 | 359 ft | 6 kts | 84° |
| 2026-05-01 15:27 | 48.99609 | 2.55992 | 359 ft | 22 kts | 85° |
| 2026-05-01 15:28 | 48.99736 | 2.58297 | 416 ft | 179 kts | 86° |
| 2026-05-01 15:28 | 48.99857 | 2.60171 | 1400 ft | 180 kts | 88° |
| 2026-05-01 15:28 | 48.99936 | 2.62096 | 2310 ft | 187 kts | 90° |
| 2026-05-01 15:29 | 49.00140 | 2.66297 | 3318 ft | 212 kts | 88° |
| 2026-05-01 15:29 | 49.00256 | 2.68611 | 3798 ft | 226 kts | 88° |
| 2026-05-01 15:29 | 49.00520 | 2.73792 | 4773 ft | 262 kts | 87° |
| 2026-05-01 15:30 | 49.00714 | 2.79450 | 6395 ft | 269 kts | 98° |
| 2026-05-01 15:31 | 48.99389 | 2.90924 | 9689 ft | 282 kts | 102° |
| 2026-05-01 15:31 | 48.98689 | 2.96945 | 10877 ft | 302 kts | 104° |
| 2026-05-01 15:32 | 48.96438 | 3.02406 | 11837 ft | 317 kts | 144° |
| 2026-05-01 15:32 | 48.92268 | 3.04363 | 13275 ft | 321 kts | 177° |
| 2026-05-01 15:33 | 48.85580 | 3.02548 | 15347 ft | 331 kts | 191° |
| 2026-05-01 15:34 | 48.78770 | 3.00294 | 17334 ft | 338 kts | 189° |